createdAt,value
2018-10-17T00:00:51.558Z,26.70
2018-10-17T00:01:51.524Z,27.60
2018-10-17T00:02:51.495Z,26.50
2018-10-17T00:03:51.468Z,25.20
2018-10-17T00:04:51.473Z,25.10
2018-10-17T00:05:51.415Z,26.00
2018-10-17T00:06:51.431Z,28.50
2018-10-17T00:07:51.362Z,26.50
2018-10-17T00:08:51.334Z,27.00
2018-10-17T00:09:51.309Z,26.50
2018-10-17T00:10:51.298Z,25.70
2018-10-17T00:11:51.255Z,24.60
2018-10-17T00:12:51.229Z,24.50
2018-10-17T00:13:51.201Z,24.90
2018-10-17T00:14:51.173Z,26.10
2018-10-17T00:15:51.145Z,24.30
2018-10-17T00:16:51.144Z,24.80
2018-10-17T00:17:51.095Z,26.50
2018-10-17T00:18:51.068Z,26.20
2018-10-17T00:19:51.040Z,24.60
2018-10-17T00:20:51.015Z,27.30
2018-10-17T00:21:50.986Z,27.70
2018-10-17T00:22:50.962Z,25.20
2018-10-17T00:23:50.932Z,24.70
2018-10-17T00:24:50.961Z,24.70
2018-10-17T00:25:50.878Z,26.00
2018-10-17T00:26:50.851Z,25.30
2018-10-17T00:27:50.824Z,25.40
2018-10-17T00:28:50.799Z,26.10
2018-10-17T00:29:50.770Z,26.60
2018-10-17T00:30:50.764Z,27.30
2018-10-17T00:31:50.715Z,24.70
2018-10-17T00:32:50.689Z,25.80
2018-10-17T00:33:50.663Z,25.90
2018-10-17T00:34:50.635Z,28.40
2018-10-17T00:35:50.607Z,27.00
2018-10-17T00:36:50.624Z,26.20
2018-10-17T00:37:50.565Z,26.50
2018-10-17T00:38:50.527Z,25.40
2018-10-17T00:39:50.500Z,25.00
2018-10-17T00:40:50.476Z,24.40
2018-10-17T00:41:50.446Z,25.50
2018-10-17T00:42:50.419Z,27.50
2018-10-17T00:43:50.392Z,26.30
2018-10-17T00:44:50.368Z,25.10
2018-10-17T00:45:50.338Z,26.50
2018-10-17T00:46:50.310Z,25.60
2018-10-17T00:47:50.284Z,28.60
2018-10-17T00:48:50.256Z,27.30
2018-10-17T00:49:50.231Z,27.80
2018-10-17T00:50:50.202Z,29.70
2018-10-17T00:51:50.176Z,28.50
2018-10-17T00:52:50.148Z,26.70
2018-10-17T00:53:50.123Z,27.00
2018-10-17T00:54:50.094Z,28.50
2018-10-17T00:55:50.069Z,29.80
2018-10-17T00:56:50.043Z,27.80
2018-10-17T00:57:50.014Z,30.10
2018-10-17T00:58:49.985Z,29.80
2018-10-17T00:59:49.961Z,28.30
2018-10-17T01:00:49.933Z,30.50
2018-10-17T01:01:49.908Z,29.40
2018-10-17T01:02:49.881Z,26.20
2018-10-17T01:03:49.852Z,26.40
2018-10-17T01:04:49.825Z,28.30
2018-10-17T01:05:49.800Z,29.40
2018-10-17T01:06:49.771Z,31.60
2018-10-17T01:07:49.743Z,29.00
2018-10-17T01:08:49.718Z,29.40
2018-10-17T01:09:49.692Z,29.80
2018-10-17T01:10:49.662Z,30.70
2018-10-17T01:11:49.636Z,29.00
2018-10-17T01:12:49.610Z,28.40
2018-10-17T01:13:49.583Z,29.60
2018-10-17T01:14:49.552Z,30.30
2018-10-17T01:15:49.527Z,32.60
2018-10-17T01:16:49.500Z,28.80
2018-10-17T01:17:49.474Z,30.90
2018-10-17T01:18:49.446Z,29.90
2018-10-17T01:19:49.419Z,32.40
2018-10-17T01:20:49.393Z,31.30
2018-10-17T01:21:49.364Z,29.20
2018-10-17T01:22:49.337Z,31.20
2018-10-17T01:23:49.311Z,32.50
2018-10-17T01:24:49.283Z,31.60
2018-10-17T01:25:49.257Z,32.20
2018-10-17T01:26:49.229Z,34.40
2018-10-17T01:27:49.201Z,31.20
2018-10-17T01:28:49.175Z,31.50
2018-10-17T01:29:49.149Z,31.50
2018-10-17T01:30:49.121Z,29.70
2018-10-17T01:31:49.094Z,33.30
2018-10-17T01:32:49.067Z,30.90
2018-10-17T01:33:49.040Z,31.60
2018-10-17T01:34:49.012Z,31.80
2018-10-17T01:35:48.985Z,31.90
2018-10-17T01:36:48.957Z,35.80
2018-10-17T01:37:48.933Z,32.70
2018-10-17T01:38:48.904Z,34.30
2018-10-17T01:39:48.877Z,33.60
2018-10-17T01:40:48.850Z,38.20
2018-10-17T01:41:48.823Z,39.20
2018-10-17T01:42:48.793Z,36.80
2018-10-17T01:43:48.767Z,38.50
2018-10-17T01:44:48.740Z,38.00
2018-10-17T01:45:48.714Z,37.30
2018-10-17T01:46:48.688Z,34.70
2018-10-17T01:47:48.659Z,32.40
2018-10-17T01:48:48.631Z,31.40
2018-10-17T01:49:48.605Z,29.60
2018-10-17T01:50:48.580Z,31.20
2018-10-17T01:51:48.549Z,29.80
2018-10-17T01:52:48.523Z,28.40
2018-10-17T01:53:48.496Z,30.30
2018-10-17T01:54:48.469Z,31.80
2018-10-17T01:55:48.442Z,33.60
2018-10-17T01:56:48.416Z,35.40
2018-10-17T01:57:48.390Z,38.50
2018-10-17T01:58:48.359Z,43.50
2018-10-17T01:59:48.331Z,43.90
2018-10-17T02:00:48.304Z,37.40
2018-10-17T02:01:48.277Z,39.10
2018-10-17T02:02:48.251Z,41.10
2018-10-17T02:03:48.224Z,38.60
2018-10-17T02:04:48.197Z,38.40
2018-10-17T02:05:48.171Z,39.10
2018-10-17T02:06:48.143Z,43.70
2018-10-17T02:07:48.114Z,38.40
2018-10-17T02:08:48.088Z,36.90
2018-10-17T02:09:48.059Z,36.50
2018-10-17T02:10:48.033Z,40.10
2018-10-17T02:11:48.005Z,36.80
2018-10-17T02:12:47.977Z,43.40
2018-10-17T02:13:47.953Z,42.20
2018-10-17T02:14:47.923Z,35.60
2018-10-17T02:15:47.898Z,39.50
2018-10-17T02:16:47.867Z,37.40
2018-10-17T02:17:47.843Z,31.30
2018-10-17T02:18:47.815Z,30.70
2018-10-17T02:19:47.789Z,31.80
2018-10-17T02:20:47.760Z,31.30
2018-10-17T02:21:47.732Z,29.50
2018-10-17T02:22:47.706Z,29.30
2018-10-17T02:23:47.677Z,29.00
2018-10-17T02:24:47.650Z,27.60
2018-10-17T02:25:47.622Z,27.50
2018-10-17T02:26:47.594Z,27.00
2018-10-17T02:27:47.568Z,25.10
2018-10-17T02:28:47.543Z,24.70
2018-10-17T02:29:47.529Z,25.30
2018-10-17T02:30:47.485Z,27.60
2018-10-17T02:31:47.459Z,26.90
2018-10-17T02:32:47.431Z,26.90
2018-10-17T02:33:47.406Z,29.10
2018-10-17T02:34:47.380Z,27.50
2018-10-17T02:35:47.349Z,27.20
2018-10-17T02:36:47.321Z,25.90
2018-10-17T02:37:47.294Z,28.40
2018-10-17T02:38:47.268Z,27.90
2018-10-17T02:39:47.344Z,31.20
2018-10-17T02:40:47.213Z,29.60
2018-10-17T02:41:47.184Z,29.60
2018-10-17T02:42:47.157Z,26.70
2018-10-17T02:43:47.129Z,28.20
2018-10-17T02:44:47.102Z,25.50
2018-10-17T02:45:47.077Z,26.20
2018-10-17T02:46:47.046Z,26.60
2018-10-17T02:47:47.019Z,31.10
2018-10-17T02:48:46.993Z,33.40
2018-10-17T02:49:46.966Z,40.10
2018-10-17T02:50:46.938Z,38.70
2018-10-17T02:51:46.909Z,40.20
2018-10-17T02:52:46.884Z,32.20
2018-10-17T02:53:46.856Z,30.40
2018-10-17T02:54:46.828Z,28.20
2018-10-17T02:55:46.801Z,29.20
2018-10-17T02:56:46.773Z,26.80
2018-10-17T02:57:46.746Z,27.30
2018-10-17T02:58:46.717Z,26.30
2018-10-17T02:59:46.692Z,28.60
2018-10-17T03:00:46.663Z,29.20
2018-10-17T03:01:46.636Z,32.70
2018-10-17T03:02:46.609Z,37.80
2018-10-17T03:03:46.581Z,41.00
2018-10-17T03:04:46.554Z,57.30
2018-10-17T03:05:46.527Z,53.70
2018-10-17T03:06:46.501Z,38.60
2018-10-17T03:07:46.471Z,40.30
2018-10-17T03:08:46.444Z,39.80
2018-10-17T03:09:46.418Z,62.00
2018-10-17T03:10:46.393Z,50.20
2018-10-17T03:11:46.362Z,45.00
2018-10-17T03:12:46.335Z,42.00
2018-10-17T03:13:46.313Z,55.20
2018-10-17T03:14:46.281Z,73.00
2018-10-17T03:15:46.258Z,50.50
2018-10-17T03:16:46.225Z,55.80
2018-10-17T03:17:46.232Z,71.50
2018-10-17T03:18:46.169Z,81.80
2018-10-17T03:19:46.142Z,90.90
2018-10-17T03:20:46.115Z,96.70
2018-10-17T03:21:46.089Z,103.50
2018-10-17T03:22:46.059Z,113.20
2018-10-17T03:23:46.034Z,90.50
2018-10-17T03:24:46.007Z,83.10
2018-10-17T03:25:45.978Z,92.30
2018-10-17T03:26:45.949Z,108.60
2018-10-17T03:27:45.976Z,125.90
2018-10-17T03:28:45.896Z,112.80
2018-10-17T03:29:45.867Z,118.30
2018-10-17T03:30:45.841Z,93.00
2018-10-17T03:31:45.819Z,104.50
2018-10-17T03:32:45.788Z,101.60
2018-10-17T03:33:45.759Z,105.10
2018-10-17T03:34:45.730Z,105.00
2018-10-17T03:35:45.721Z,110.10
2018-10-17T03:36:45.680Z,99.60
2018-10-17T03:37:45.649Z,72.50
2018-10-17T03:38:45.621Z,71.90
2018-10-17T03:39:45.594Z,71.80
2018-10-17T03:40:45.570Z,64.30
2018-10-17T03:41:45.539Z,58.80
2018-10-17T03:42:46.496Z,54.60
2018-10-17T03:43:45.484Z,48.90
2018-10-17T03:44:45.459Z,52.70
2018-10-17T03:45:45.430Z,55.00
2018-10-17T03:46:45.402Z,49.30
2018-10-17T03:47:45.374Z,49.30
2018-10-17T03:48:45.347Z,53.50
2018-10-17T03:49:45.371Z,61.40
2018-10-17T03:50:45.295Z,59.80
2018-10-17T03:51:45.264Z,58.20
2018-10-17T03:52:45.237Z,58.50
2018-10-17T03:53:45.217Z,61.40
2018-10-17T03:54:45.185Z,62.40
2018-10-17T03:55:45.157Z,63.40
2018-10-17T03:56:45.127Z,62.10
2018-10-17T03:57:45.099Z,62.40
2018-10-17T03:58:45.074Z,59.60
2018-10-17T03:59:45.142Z,59.90
2018-10-17T04:00:45.017Z,53.70
2018-10-17T04:01:44.988Z,57.50
2018-10-17T04:02:44.961Z,55.10
2018-10-17T04:03:44.933Z,50.70
2018-10-17T04:04:44.906Z,52.30
2018-10-17T04:05:44.880Z,49.50
2018-10-17T04:06:44.852Z,49.70
2018-10-17T04:07:44.840Z,51.40
2018-10-17T04:08:44.802Z,49.50
2018-10-17T04:09:44.772Z,53.70
2018-10-17T04:10:44.742Z,56.40
2018-10-17T04:11:44.717Z,54.40
2018-10-17T04:12:44.688Z,53.50
2018-10-17T04:13:44.661Z,48.50
2018-10-17T04:14:44.633Z,48.70
2018-10-17T04:15:44.605Z,58.30
2018-10-17T04:16:44.577Z,79.90
2018-10-17T04:17:44.550Z,64.70
2018-10-17T04:18:44.522Z,66.80
2018-10-17T04:19:44.496Z,59.10
2018-10-17T04:20:44.495Z,60.70
2018-10-17T04:21:44.441Z,59.50
2018-10-17T04:22:44.532Z,64.40
2018-10-17T04:23:44.386Z,69.80
2018-10-17T04:24:44.360Z,77.60
2018-10-17T04:25:44.332Z,78.10
2018-10-17T04:26:44.303Z,92.70
2018-10-17T04:27:44.276Z,93.50
2018-10-17T04:28:44.249Z,88.60
2018-10-17T04:29:44.225Z,92.70
2018-10-17T04:30:44.194Z,68.10
2018-10-17T04:31:44.166Z,74.60
2018-10-17T04:32:44.145Z,54.10
2018-10-17T04:33:44.113Z,66.00
2018-10-17T04:34:44.085Z,71.90
2018-10-17T04:35:44.056Z,73.80
2018-10-17T04:36:44.030Z,71.20
2018-10-17T04:37:44.008Z,75.70
2018-10-17T04:38:43.974Z,78.10
2018-10-17T04:39:43.946Z,92.80
2018-10-17T04:40:43.919Z,68.20
2018-10-17T04:41:43.894Z,67.20
2018-10-17T04:42:43.865Z,70.10
2018-10-17T04:43:43.837Z,70.00
2018-10-17T04:44:43.810Z,77.00
2018-10-17T04:45:43.789Z,61.00
2018-10-17T04:46:43.757Z,67.00
2018-10-17T04:47:43.784Z,59.20
2018-10-17T04:48:43.701Z,48.80
2018-10-17T04:49:43.675Z,41.90
2018-10-17T04:50:43.644Z,45.20
2018-10-17T04:51:43.618Z,50.90
2018-10-17T04:52:43.591Z,48.70
2018-10-17T04:53:43.563Z,48.80
2018-10-17T04:54:43.536Z,48.50
2018-10-17T04:55:43.507Z,51.60
2018-10-17T04:56:43.481Z,51.30
2018-10-17T04:57:43.452Z,50.80
2018-10-17T04:58:43.424Z,48.20
2018-10-17T04:59:43.396Z,52.40
2018-10-17T05:00:43.374Z,55.70
2018-10-17T05:01:43.344Z,51.30
2018-10-17T05:02:43.318Z,51.70
2018-10-17T05:03:43.287Z,51.60
2018-10-17T05:04:43.364Z,49.20
2018-10-17T05:05:43.230Z,51.10
2018-10-17T05:06:43.253Z,51.00
2018-10-17T05:07:43.179Z,59.20
2018-10-17T05:08:43.149Z,58.10
2018-10-17T05:09:43.122Z,58.50
2018-10-17T05:10:43.093Z,55.20
2018-10-17T05:11:43.064Z,56.20
2018-10-17T05:12:43.039Z,76.10
2018-10-17T05:13:43.010Z,91.10
2018-10-17T05:14:42.987Z,70.90
2018-10-17T05:15:42.955Z,77.50
2018-10-17T05:16:42.930Z,65.70
2018-10-17T05:17:42.901Z,77.60
2018-10-17T05:18:42.874Z,86.40
2018-10-17T05:19:42.846Z,78.90
2018-10-17T05:20:42.818Z,83.70
2018-10-17T05:21:42.790Z,81.80
2018-10-17T05:22:42.773Z,74.50
2018-10-17T05:23:42.735Z,93.10
2018-10-17T05:24:42.709Z,89.40
2018-10-17T05:25:42.682Z,84.70
2018-10-17T05:26:42.653Z,74.50
2018-10-17T05:27:42.626Z,70.20
2018-10-17T05:28:42.599Z,61.80
2018-10-17T05:29:42.675Z,116.80
2018-10-17T05:30:42.547Z,93.00
2018-10-17T05:31:42.516Z,106.80
2018-10-17T05:32:42.489Z,88.30
2018-10-17T05:33:42.465Z,85.60
2018-10-17T05:34:42.435Z,88.20
2018-10-17T05:35:42.408Z,82.20
2018-10-17T05:36:42.381Z,106.40
2018-10-17T05:37:42.365Z,112.10
2018-10-17T05:38:42.326Z,101.00
2018-10-17T05:39:42.301Z,91.90
2018-10-17T05:40:42.271Z,102.40
2018-10-17T05:41:42.246Z,112.50
2018-10-17T05:42:42.216Z,104.40
2018-10-17T05:43:42.189Z,103.80
2018-10-17T05:44:42.164Z,133.70
2018-10-17T05:45:42.135Z,104.80
2018-10-17T05:46:42.109Z,101.50
2018-10-17T05:47:42.083Z,99.00
2018-10-17T05:48:42.053Z,100.50
2018-10-17T05:49:42.026Z,127.90
2018-10-17T05:50:41.998Z,94.40
2018-10-17T05:51:41.974Z,105.00
2018-10-17T05:52:41.943Z,103.40
2018-10-17T05:53:41.918Z,81.90
2018-10-17T05:54:41.889Z,99.10
2018-10-17T05:55:41.918Z,93.90
2018-10-17T05:56:41.835Z,119.80
2018-10-17T05:57:41.805Z,111.00
2018-10-17T05:58:41.779Z,70.20
2018-10-17T05:59:41.753Z,67.70
2018-10-17T06:00:41.724Z,87.80
2018-10-17T06:01:41.796Z,68.60
2018-10-17T06:02:41.669Z,68.20
2018-10-17T06:03:41.640Z,70.70
2018-10-17T06:04:41.613Z,76.00
2018-10-17T06:05:41.587Z,79.00
2018-10-17T06:06:41.558Z,88.30
2018-10-17T06:07:41.533Z,81.30
2018-10-17T06:08:41.506Z,79.80
2018-10-17T06:09:41.480Z,113.40
2018-10-17T06:10:41.449Z,102.10
2018-10-17T06:11:41.426Z,85.90
2018-10-17T06:12:41.397Z,80.90
2018-10-17T06:13:41.370Z,100.80
2018-10-17T06:14:41.341Z,123.20
2018-10-17T06:15:41.313Z,124.00
2018-10-17T06:16:41.301Z,124.70
2018-10-17T06:17:41.258Z,128.00
2018-10-17T06:18:41.231Z,103.50
2018-10-17T06:19:41.204Z,104.20
2018-10-17T06:20:41.175Z,105.10
2018-10-17T06:21:41.149Z,115.60
2018-10-17T06:22:41.121Z,94.70
2018-10-17T06:23:41.094Z,88.20
2018-10-17T06:24:41.071Z,86.50
2018-10-17T06:25:41.047Z,80.40
2018-10-17T06:26:41.013Z,78.40
2018-10-17T06:27:40.984Z,65.10
2018-10-17T06:28:40.959Z,64.30
2018-10-17T06:29:40.931Z,65.40
2018-10-17T06:30:40.986Z,69.30
2018-10-17T06:31:40.875Z,63.40
2018-10-17T06:32:40.850Z,69.70
2018-10-17T06:33:40.822Z,82.70
2018-10-17T06:34:40.846Z,67.80
2018-10-17T06:35:40.768Z,67.90
2018-10-17T06:36:40.740Z,73.90
2018-10-17T06:37:40.713Z,72.50
2018-10-17T06:38:40.687Z,73.20
2018-10-17T06:39:40.662Z,89.60
2018-10-17T06:40:40.633Z,81.70
2018-10-17T06:41:40.606Z,90.10
2018-10-17T06:42:40.592Z,95.00
2018-10-17T06:43:40.661Z,94.50
2018-10-17T06:44:40.524Z,92.40
2018-10-17T06:45:40.510Z,82.80
2018-10-17T06:46:40.471Z,81.20
2018-10-17T06:47:40.444Z,77.10
2018-10-17T06:48:40.419Z,79.20
2018-10-17T06:49:40.391Z,70.10
2018-10-17T06:50:40.363Z,71.40
2018-10-17T06:51:40.336Z,75.50
2018-10-17T06:52:40.309Z,64.10
2018-10-17T06:53:40.344Z,68.30
2018-10-17T06:54:40.261Z,67.20
2018-10-17T06:55:40.230Z,59.20
2018-10-17T06:56:40.207Z,58.00
2018-10-17T06:57:40.177Z,56.30
2018-10-17T06:58:40.150Z,62.80
2018-10-17T06:59:40.124Z,60.30
2018-10-17T07:00:40.097Z,59.40
2018-10-17T07:01:40.172Z,62.80
2018-10-17T07:02:40.041Z,57.20
2018-10-17T07:03:40.017Z,65.90
2018-10-17T07:04:39.990Z,52.40
2018-10-17T07:05:39.963Z,55.10
2018-10-17T07:06:39.935Z,62.70
2018-10-17T07:07:39.911Z,61.10
2018-10-17T07:08:39.985Z,53.40
2018-10-17T07:09:39.859Z,50.40
2018-10-17T07:10:39.831Z,48.50
2018-10-17T07:11:39.806Z,50.50
2018-10-17T07:12:39.781Z,47.00
2018-10-17T07:13:39.752Z,49.80
2018-10-17T07:14:39.728Z,45.90
2018-10-17T07:15:39.877Z,42.30
2018-10-17T07:16:39.679Z,42.20
2018-10-17T07:17:39.650Z,39.40
2018-10-17T07:18:39.624Z,39.10
2018-10-17T07:19:39.598Z,38.20
2018-10-17T07:20:39.612Z,39.00
2018-10-17T07:21:39.545Z,38.00
2018-10-17T07:22:39.520Z,37.30
2018-10-17T07:23:39.495Z,37.60
2018-10-17T07:24:39.470Z,38.20
2018-10-17T07:25:39.447Z,36.10
2018-10-17T07:26:39.418Z,35.60
2018-10-17T07:27:39.394Z,36.10
2018-10-17T07:28:39.416Z,33.90
2018-10-17T07:29:39.528Z,35.70
2018-10-17T07:30:39.317Z,34.50
2018-10-17T07:31:39.292Z,35.10
2018-10-17T07:32:39.268Z,35.00
2018-10-17T07:33:39.243Z,35.90
2018-10-17T07:34:39.217Z,33.60
2018-10-17T07:35:39.213Z,34.40
2018-10-17T07:36:39.167Z,33.30
2018-10-17T07:37:39.142Z,32.60
2018-10-17T07:38:39.118Z,33.00
2018-10-17T07:39:39.093Z,32.90
2018-10-17T07:40:39.070Z,33.00
2018-10-17T07:41:39.046Z,32.60
2018-10-17T07:42:39.020Z,33.00
2018-10-17T07:43:38.996Z,31.00
2018-10-17T07:44:38.973Z,31.80
2018-10-17T07:45:38.956Z,32.40
2018-10-17T07:46:38.926Z,31.90
2018-10-17T07:47:38.903Z,33.10
2018-10-17T07:48:38.880Z,31.60
2018-10-17T07:49:38.859Z,32.40
2018-10-17T07:50:38.834Z,34.70
2018-10-17T07:51:38.810Z,37.00
2018-10-17T07:52:38.788Z,43.00
2018-10-17T07:53:38.880Z,42.10
2018-10-17T07:54:38.744Z,40.60
2018-10-17T07:55:38.722Z,38.80
2018-10-17T07:56:38.698Z,38.10
2018-10-17T07:57:38.678Z,35.50
2018-10-17T07:58:38.654Z,34.60
2018-10-17T07:59:38.677Z,33.30
2018-10-17T08:00:38.612Z,33.20
2018-10-17T08:01:38.591Z,31.80
2018-10-17T08:02:38.567Z,32.00
2018-10-17T08:03:38.546Z,31.30
2018-10-17T08:04:38.524Z,29.70
2018-10-17T08:05:38.504Z,29.10
2018-10-17T08:06:38.500Z,29.90
2018-10-17T08:07:38.459Z,28.30
2018-10-17T08:08:38.439Z,28.70
2018-10-17T08:09:38.419Z,28.60
2018-10-17T08:10:38.397Z,27.70
2018-10-17T08:11:38.376Z,29.30
2018-10-17T08:12:38.356Z,28.40
2018-10-17T08:13:38.350Z,28.00
2018-10-17T08:14:38.313Z,28.90
2018-10-17T08:15:38.292Z,29.70
2018-10-17T08:16:38.271Z,29.50
2018-10-17T08:17:38.251Z,30.20
2018-10-17T08:18:38.230Z,29.40
2018-10-17T08:19:38.211Z,30.20
2018-10-17T08:20:38.193Z,29.70
2018-10-17T08:21:38.169Z,29.60
2018-10-17T08:22:38.148Z,29.00
2018-10-17T08:23:38.128Z,29.20
2018-10-17T08:24:38.109Z,29.50
2018-10-17T08:25:38.090Z,28.90
2018-10-17T08:26:38.068Z,29.20
2018-10-17T08:27:38.101Z,31.00
2018-10-17T08:28:38.028Z,31.40
2018-10-17T08:29:38.009Z,29.00
2018-10-17T08:30:37.989Z,31.80
2018-10-17T08:31:37.968Z,31.20
2018-10-17T08:32:37.948Z,32.00
2018-10-17T08:33:37.928Z,31.70
2018-10-17T08:34:37.908Z,31.10
2018-10-17T08:35:37.906Z,31.20
2018-10-17T08:36:38.066Z,30.70
2018-10-17T08:37:38.225Z,30.60
2018-10-17T08:38:37.829Z,31.00
2018-10-17T08:39:37.813Z,32.00
2018-10-17T08:40:37.790Z,31.90
2018-10-17T08:41:37.770Z,31.90
2018-10-17T08:42:37.755Z,33.40
2018-10-17T08:43:37.731Z,32.80
2018-10-17T08:44:37.711Z,31.90
2018-10-17T08:45:37.692Z,32.40
2018-10-17T08:46:37.673Z,29.70
2018-10-17T08:47:37.652Z,30.20
2018-10-17T08:48:37.631Z,32.60
2018-10-17T08:49:37.614Z,30.80
2018-10-17T08:50:37.605Z,31.70
2018-10-17T08:51:37.574Z,31.50
2018-10-17T08:52:37.555Z,31.30
2018-10-17T08:53:37.575Z,31.80
2018-10-17T08:54:37.515Z,33.30
2018-10-17T08:55:37.494Z,32.50
2018-10-17T08:56:37.479Z,30.80
2018-10-17T08:57:37.521Z,32.80
2018-10-17T08:58:37.437Z,31.00
2018-10-17T08:59:37.419Z,33.20
2018-10-17T09:00:37.399Z,31.00
2018-10-17T09:01:37.378Z,28.60
2018-10-17T09:02:37.360Z,30.20
2018-10-17T09:03:37.340Z,30.60
2018-10-17T09:04:37.321Z,29.80
2018-10-17T09:05:37.302Z,29.90
2018-10-17T09:06:37.283Z,30.10
2018-10-17T09:07:37.268Z,29.50
2018-10-17T09:08:37.255Z,30.50
2018-10-17T09:09:37.228Z,29.70
2018-10-17T09:10:37.210Z,31.20
2018-10-17T09:11:37.188Z,31.40
2018-10-17T09:12:37.170Z,30.70
2018-10-17T09:13:37.247Z,32.00
2018-10-17T09:14:37.134Z,31.30
2018-10-17T09:15:38.542Z,32.40
2018-10-17T09:16:37.178Z,30.60
2018-10-17T09:17:37.078Z,29.90
2018-10-17T09:18:37.060Z,28.60
2018-10-17T09:19:37.208Z,29.70
2018-10-17T09:20:37.431Z,31.20
2018-10-17T09:21:37.356Z,31.30
2018-10-17T09:22:37.072Z,31.00
2018-10-17T09:23:36.969Z,30.90
2018-10-17T09:24:36.951Z,29.70
2018-10-17T09:25:37.016Z,31.10
2018-10-17T09:26:36.915Z,31.60
2018-10-17T09:27:36.899Z,31.30
2018-10-17T09:28:36.879Z,31.90
2018-10-17T09:29:36.861Z,29.80
2018-10-17T09:30:36.918Z,30.60
2018-10-17T09:31:36.825Z,30.00
2018-10-17T09:32:36.807Z,30.40
2018-10-17T09:33:36.788Z,30.70
2018-10-17T09:34:36.775Z,30.30
2018-10-17T09:35:36.822Z,27.90
2018-10-17T09:36:36.736Z,29.20
2018-10-17T09:37:36.719Z,29.20
2018-10-17T09:38:36.700Z,28.70
2018-10-17T09:39:36.686Z,28.00
2018-10-17T09:40:36.665Z,28.60
2018-10-17T09:41:36.648Z,29.00
2018-10-17T09:42:36.632Z,29.10
2018-10-17T09:43:36.615Z,29.30
2018-10-17T09:44:36.596Z,27.80
2018-10-17T09:45:36.579Z,29.30
2018-10-17T09:46:36.562Z,27.70
2018-10-17T09:47:36.543Z,27.90
2018-10-17T09:48:36.527Z,28.50
2018-10-17T09:49:36.511Z,28.90
2018-10-17T09:50:36.491Z,27.30
2018-10-17T09:51:36.474Z,28.20
2018-10-17T09:52:36.457Z,28.50
2018-10-17T09:53:36.438Z,28.30
2018-10-17T09:54:36.420Z,28.30
2018-10-17T09:55:36.404Z,26.90
2018-10-17T09:56:36.386Z,26.10
2018-10-17T09:57:36.369Z,26.40
2018-10-17T09:58:36.352Z,25.90
2018-10-17T09:59:36.335Z,26.50
2018-10-17T10:00:36.317Z,24.80
2018-10-17T10:01:36.301Z,25.40
2018-10-17T10:02:36.284Z,25.80
2018-10-17T10:03:36.266Z,25.50
2018-10-17T10:04:36.249Z,24.70
2018-10-17T10:05:36.232Z,24.00
2018-10-17T10:06:36.215Z,24.40
2018-10-17T10:07:36.198Z,23.20
2018-10-17T10:08:36.182Z,25.70
2018-10-17T10:09:36.164Z,25.70
2018-10-17T10:10:36.153Z,24.10
2018-10-17T10:11:36.130Z,22.30
2018-10-17T10:12:36.115Z,23.40
2018-10-17T10:13:36.099Z,23.60
2018-10-17T10:14:36.083Z,23.10
2018-10-17T10:15:36.064Z,23.70
2018-10-17T10:16:36.047Z,23.80
2018-10-17T10:17:36.063Z,22.90
2018-10-17T10:18:36.013Z,23.00
2018-10-17T10:19:35.997Z,23.90
2018-10-17T10:20:35.982Z,22.80
2018-10-17T10:21:35.966Z,22.50
2018-10-17T10:22:35.963Z,22.80
2018-10-17T10:23:35.983Z,22.30
2018-10-17T10:24:35.954Z,22.80
2018-10-17T10:25:35.900Z,23.60
2018-10-17T10:26:35.889Z,24.50
2018-10-17T10:27:35.867Z,23.40
2018-10-17T10:28:35.894Z,23.70
2018-10-17T10:29:35.878Z,22.50
2018-10-17T10:30:35.818Z,24.50
2018-10-17T10:31:35.798Z,23.90
2018-10-17T10:32:35.783Z,24.00
2018-10-17T10:33:35.776Z,22.50
2018-10-17T10:34:35.750Z,22.10
2018-10-17T10:35:35.734Z,23.00
2018-10-17T10:36:35.716Z,21.70
2018-10-17T10:37:35.701Z,20.70
2018-10-17T10:38:35.685Z,20.60
2018-10-17T10:39:35.668Z,21.10
2018-10-17T10:40:35.714Z,21.80
2018-10-17T10:41:35.636Z,21.60
2018-10-17T10:42:35.618Z,20.90
2018-10-17T10:43:35.604Z,22.20
2018-10-17T10:44:35.588Z,20.10
2018-10-17T10:45:35.671Z,21.00
2018-10-17T10:46:35.555Z,20.30
2018-10-17T10:47:35.542Z,21.80
2018-10-17T10:48:35.526Z,21.40
2018-10-17T10:49:35.509Z,20.90
2018-10-17T10:50:35.490Z,21.60
2018-10-17T10:51:35.565Z,21.70
2018-10-17T10:52:35.460Z,21.00
2018-10-17T10:53:35.443Z,20.90
2018-10-17T10:54:35.424Z,20.20
2018-10-17T10:55:35.409Z,20.80
2018-10-17T10:56:35.397Z,19.70
2018-10-17T10:57:35.376Z,19.10
2018-10-17T10:58:35.529Z,19.20
2018-10-17T10:59:35.571Z,20.10
2018-10-17T11:00:35.328Z,21.30
2018-10-17T11:01:35.313Z,21.00
2018-10-17T11:02:35.295Z,21.00
2018-10-17T11:03:35.280Z,21.00
2018-10-17T11:04:35.331Z,20.50
2018-10-17T11:05:35.446Z,19.30
2018-10-17T11:06:35.232Z,19.40
2018-10-17T11:07:35.217Z,20.20
2018-10-17T11:08:35.201Z,20.80
2018-10-17T11:09:35.184Z,19.60
2018-10-17T11:10:35.167Z,20.60
2018-10-17T11:11:35.151Z,20.70
2018-10-17T11:12:35.134Z,20.70
2018-10-17T11:13:35.120Z,19.10
2018-10-17T11:14:35.125Z,20.60
2018-10-17T11:15:35.087Z,19.30
2018-10-17T11:16:35.071Z,19.10
2018-10-17T11:17:35.056Z,19.00
2018-10-17T11:18:35.042Z,18.00
2018-10-17T11:19:35.028Z,17.70
2018-10-17T11:20:35.004Z,19.00
2018-10-17T11:21:34.990Z,17.90
2018-10-17T11:22:34.974Z,18.10
2018-10-17T11:23:34.957Z,16.50
2018-10-17T11:24:34.941Z,18.10
2018-10-17T11:25:34.924Z,17.90
2018-10-17T11:26:34.907Z,16.60
2018-10-17T11:27:34.892Z,15.50
2018-10-17T11:28:34.875Z,16.60
2018-10-17T11:29:34.859Z,17.60
2018-10-17T11:30:34.844Z,17.90
2018-10-17T11:31:34.829Z,17.00
2018-10-17T11:32:34.812Z,16.40
2018-10-17T11:33:34.796Z,16.60
2018-10-17T11:34:34.778Z,17.30
2018-10-17T11:35:34.764Z,18.20
2018-10-17T11:36:34.747Z,18.10
2018-10-17T11:37:34.825Z,17.20
2018-10-17T11:38:34.714Z,17.70
2018-10-17T11:39:34.697Z,17.30
2018-10-17T11:40:34.744Z,16.40
2018-10-17T11:41:34.681Z,17.30
2018-10-17T11:42:34.651Z,17.30
2018-10-17T11:43:34.634Z,17.90
2018-10-17T11:44:34.618Z,17.60
2018-10-17T11:45:34.602Z,18.40
2018-10-17T11:46:34.589Z,16.70
2018-10-17T11:47:34.574Z,16.90
2018-10-17T11:48:34.554Z,16.60
2018-10-17T11:49:34.538Z,17.50
2018-10-17T11:50:34.585Z,15.80
2018-10-17T11:51:34.507Z,15.70
2018-10-17T11:52:34.490Z,16.50
2018-10-17T11:53:34.472Z,15.50
2018-10-17T11:54:34.455Z,15.30
2018-10-17T11:55:34.440Z,14.20
2018-10-17T11:56:34.425Z,14.40
2018-10-17T11:57:34.407Z,14.60
2018-10-17T11:58:34.390Z,14.30
2018-10-17T11:59:34.390Z,15.10
2018-10-17T12:00:34.358Z,14.70
2018-10-17T12:01:34.351Z,15.70
2018-10-17T12:02:34.325Z,15.40
2018-10-17T12:03:34.470Z,15.90
2018-10-17T12:04:34.384Z,16.40
2018-10-17T12:05:34.806Z,15.50
2018-10-17T12:06:34.326Z,16.70
2018-10-17T12:07:34.242Z,15.60
2018-10-17T12:08:34.227Z,16.20
2018-10-17T12:09:34.212Z,14.30
2018-10-17T12:10:34.194Z,15.80
2018-10-17T12:11:34.214Z,14.90
2018-10-17T12:12:34.164Z,16.10
2018-10-17T12:13:34.146Z,15.10
2018-10-17T12:14:34.131Z,14.20
2018-10-17T12:15:34.112Z,13.30
2018-10-17T12:16:34.094Z,13.30
2018-10-17T12:17:34.079Z,14.40
2018-10-17T12:18:34.063Z,15.30
2018-10-17T12:19:34.060Z,16.30
2018-10-17T12:20:34.031Z,15.20
2018-10-17T12:21:34.079Z,15.00
2018-10-17T12:22:33.996Z,14.40
2018-10-17T12:23:33.980Z,14.40
2018-10-17T12:24:33.964Z,13.80
2018-10-17T12:25:33.947Z,13.50
2018-10-17T12:26:33.930Z,14.60
2018-10-17T12:27:33.916Z,15.00
2018-10-17T12:28:34.023Z,15.10
2018-10-17T12:29:33.880Z,14.90
2018-10-17T12:30:33.863Z,13.30
2018-10-17T12:31:33.848Z,13.20
2018-10-17T12:32:33.831Z,14.60
2018-10-17T12:33:33.815Z,13.40
2018-10-17T12:34:33.797Z,14.50
2018-10-17T12:35:33.780Z,13.30
2018-10-17T12:36:33.767Z,13.40
2018-10-17T12:37:33.749Z,13.60
2018-10-17T12:38:33.731Z,11.50
2018-10-17T12:39:33.870Z,12.60
2018-10-17T12:40:33.860Z,12.30
2018-10-17T12:41:33.733Z,11.50
2018-10-17T12:42:33.665Z,11.60
2018-10-17T12:43:33.651Z,13.50
2018-10-17T12:44:33.635Z,12.70
2018-10-17T12:45:33.630Z,12.30
2018-10-17T12:46:33.598Z,12.70
2018-10-17T12:47:33.583Z,12.90
2018-10-17T12:48:33.567Z,12.10
2018-10-17T12:49:33.553Z,12.70
2018-10-17T12:50:33.533Z,12.40
2018-10-17T12:51:33.518Z,11.70